CheckWX is a tool to help pilots better visualize weather data.  It is not intended as a substitute for an official pre-flight weather briefing.

01:33:27 UTC

KMMI METAR
McMinn County Airport
Athens, Tennessee, USA
Current

38 mins ago

KMMI 200055Z AUTO 00000KT 10SM CLR 25/21 A3008 RMK A01
Observed
Aug-20 @ 00:55 UTC
Visibility
10 SM
Flight Rules
VFR
Cloud Levels
  • Clear skies
Temperature
25°C / 77°F
Dewpoint
21°C / 70°F
Humidity
79%
Altimeter
30.08" Hg
Pressure
1018.62 hPa
Previous

58 mins ago

KMMI 200035Z AUTO 00000KT 9SM CLR 26/20 A3007 RMK A01
Observed
Aug-20 @ 00:35 UTC
Visibility
9 SM
Flight Rules
VFR
Cloud Levels
  • Clear skies
Temperature
26°C / 79°F
Dewpoint
20°C / 68°F
Humidity
70%
Altimeter
30.07" Hg
Pressure
1018.32 hPa
Previous

2 hours ago

KMMI 192355Z AUTO 18003KT 10SM CLR 27/20 A3006 RMK A01
Observed
Aug-19 @ 23:55 UTC
Wind
  • 180° at 3 KTS
Visibility
10 SM
Flight Rules
VFR
Cloud Levels
  • Clear skies
Temperature
27°C / 81°F
Dewpoint
20°C / 68°F
Heat Index
29°C / 84°F
Humidity
66%
Altimeter
30.06" Hg
Pressure
1017.92 hPa